• Join FlightAware (Why Join?)
  • Login
  • US Flag 
02:01PM EDT


 

Airport Tracker/Info


-or-


 

Live Flight TrackerFlight Track Log ✈ SWA271 ✈ 16-Mar-2012 ✈ KMDW - KCMH

Flight Track Log - Related Links

Times and Time Zones

All times are in EDT time to prevent confusion due to time zone crossing. See the SWA271 flight status page for this flight to view local times or setup timezone preferences in your user account.

Time Position Orientation Groundspeed Altitude Reporting Facility
EDT Latitude Longitude Course Direction KTS MPH feet Rate Location/Type
03:27PM 41.7833 -87.8167 37° Northeast 217 250 3,000  Level Chicago TRACON
03:28PM 41.8333 -87.7667 93° East 271 312 3,400 720 Climbing Chicago TRACON
03:30PM 41.8264 -87.5917 99° East 264 304 5,100 1,560 Climbing Chicago Center
03:31PM 41.8142 -87.4889 99° East 271 312 8,100 2,820 Climbing Chicago Center
03:32PM 41.8019 -87.3806 99° East 278 320 10,800 2,880 Climbing Chicago Center
03:34PM 41.7722 -87.1225 95° East 336 387 16,800 2,820 Climbing Chicago Center
03:35PM 41.7633 -86.9864 89° East 353 406 19,400 2,400 Climbing Chicago Center
03:36PM 41.7644 -86.8472 88° East 364 419 21,600 2,100 Climbing Chicago Center
03:37PM 41.7675 -86.6994 89° East 371 427 23,700 1,860 Climbing Chicago Center
03:38PM 41.7683 -86.5603 91° East 401 461 25,400 1,800 Climbing Chicago Center
03:39PM 41.7667 -86.4072 109° East 406 467 27,300 1,620 Climbing Chicago Center
03:40PM 41.7292 -86.2586 111° Southeast 415 478 28,700 840 Climbing Chicago Center
03:41PM 41.6808 -86.0914 120° Southeast 434 499 29,000 60 Climbing Chicago Center
03:42PM 41.6181 -85.9444 132° Southeast 444 511 28,900 -60 Descending Chicago Center
03:43PM 41.5308 -85.8158 132° Southeast 464 534 28,900  Level Chicago Center
03:44PM 41.4456 -85.6875 130° Southeast 471 542 28,900  Level Chicago Center
03:45PM 41.3642 -85.5592 130° Southeast 466 536 28,900  Level Chicago Center
03:46PM 41.2828 -85.4314 131° Southeast 461 531 28,900  Level Chicago Center
03:48PM 41.1561 -85.2381 131° Southeast 432 497 28,900  Level Indianapolis Center
03:49PM 41.0744 -85.1150 131° Southeast 443 510 28,900 -600 Level Indianapolis Center
03:50PM 40.9925 -84.9892 130° Southeast 443 510 27,700 -2,100 Descending Indianapolis Center
03:51PM 40.9211 -84.8753 126° Southeast 443 510 24,800 -2,400 Descending Indianapolis Center
03:52PM 40.8494 -84.7450 115° Southeast 441 507 23,000 -900 Descending Indianapolis Center
03:53PM 40.8008 -84.6097 112° Southeast 413 475 23,000  Level Indianapolis Center
03:54PM 40.7542 -84.4583 113° Southeast 408 470 23,000  Level Indianapolis Center
03:55PM 40.7111 -84.3236 111° Southeast 399 459 23,000  Level Indianapolis Center
03:56PM 40.6703 -84.1864 113° Southeast 399 459 23,000 -480 Level Indianapolis Center
03:57PM 40.6272 -84.0547 112° Southeast 394 453 22,100 -1,500 Descending Indianapolis Center
03:58PM 40.5881 -83.9286 113° Southeast 383 441 20,100 -1,980 Descending Indianapolis Center
03:59PM 40.5489 -83.8083 112° Southeast 365 420 18,200 -1,920 Descending Indianapolis Center
04:00PM 40.5136 -83.6964 114° Southeast 345 397 16,300 -2,040 Descending Indianapolis Center
04:01PM 40.4761 -83.5844 111° Southeast 340 391 14,200 -1,860 Descending Indianapolis Center
04:02PM 40.4469 -83.4861 135° Southeast 327 376 12,600 -1,920 Descending Indianapolis Center
04:02PM 40.4094 -83.4372 130° Southeast 313 360 11,400 -1,920 Descending Indianapolis Center
04:03PM 40.3864 -83.4017 140° Southeast 317 365 10,700 -1,380 Descending Indianapolis Center
04:04PM 40.3489 -83.3608 135° Southeast 305 351 10,000 -1,620 Descending Indianapolis Center
04:05PM 40.2903 -83.2850 133° Southeast 282 325 8,300 -1,740 Descending Indianapolis Center
04:06PM 40.2358 -83.2089 135° Southeast 285 328 6,500 -1,140 Descending Indianapolis Center
04:07PM 40.1794 -83.1358 127° Southeast 279 321 6,000 -300 Descending Indianapolis Center
04:08PM 40.1353 -83.0600 113° Southeast 264 304 6,000  Level Indianapolis Center
04:09PM 40.1058 -82.9708 102° East 270 311 6,000  Level Indianapolis Center
04:10PM 40.0908 -82.8786 103° East 249 287 6,000 -540 Level Indianapolis Center
04:11PM 40.0756 -82.7947 100° East 236 272 5,000 -720 Descending Indianapolis Center
04:12PM 40.0647 -82.7108 146° Southeast 239 275 4,600 -900 Descending Indianapolis Center
04:13PM 40.0183 -82.6706 227° Southwest 231 266 3,200 -840 Descending Indianapolis Center
04:14PM 39.9833 -82.7197 275° West 207 238 3,000 -540 Descending Indianapolis Center
04:15PM 39.9881 -82.7847 277° West 179 206 2,200 -780 Descending Indianapolis Center
04:16PM 39.9925 -82.8336 277° West 138 159 1,500 -720 Descending Indianapolis Center